sensor_id;sensor_type;location;lat;lon;timestamp;P1;durP1;ratioP1;P2;durP2;ratioP2
62863;SDS011;48954;59.950;11.014;2024-02-14T00:45:36;30.50;;;11.10;;
62863;SDS011;48954;59.950;11.014;2024-02-14T01:06:17;21.70;;;8.70;;
62863;SDS011;48954;59.950;11.014;2024-02-14T01:13:28;19.40;;;9.40;;
62863;SDS011;48954;59.950;11.014;2024-02-14T01:16:53;15.20;;;7.30;;
62863;SDS011;48954;59.950;11.014;2024-02-14T03:11:09;40.80;;;13.70;;
62863;SDS011;48954;59.950;11.014;2024-02-14T03:13:55;40.80;;;15.60;;
62863;SDS011;48954;59.950;11.014;2024-02-14T03:16:54;30.00;;;11.80;;
62863;SDS011;48954;59.950;11.014;2024-02-14T03:19:55;25.30;;;9.90;;
62863;SDS011;48954;59.950;11.014;2024-02-14T03:22:36;25.30;;;11.00;;
62863;SDS011;48954;59.950;11.014;2024-02-14T03:25:23;26.40;;;10.30;;
62863;SDS011;48954;59.950;11.014;2024-02-14T03:28:04;45.30;;;15.60;;
62863;SDS011;48954;59.950;11.014;2024-02-14T03:30:45;38.70;;;14.50;;
62863;SDS011;48954;59.950;11.014;2024-02-14T03:33:33;25.00;;;10.90;;
62863;SDS011;48954;59.950;11.014;2024-02-14T03:36:22;21.60;;;8.80;;
62863;SDS011;48954;59.950;11.014;2024-02-14T03:39:25;22.20;;;9.20;;
62863;SDS011;48954;59.950;11.014;2024-02-14T03:42:48;26.10;;;10.90;;
62863;SDS011;48954;59.950;11.014;2024-02-14T03:46:10;17.90;;;9.10;;
62863;SDS011;48954;59.950;11.014;2024-02-14T03:49:14;29.30;;;12.30;;
62863;SDS011;48954;59.950;11.014;2024-02-14T03:51:59;23.50;;;8.80;;
62863;SDS011;48954;59.950;11.014;2024-02-14T03:55:00;19.40;;;8.00;;
62863;SDS011;48954;59.950;11.014;2024-02-14T03:57:41;20.60;;;7.70;;
62863;SDS011;48954;59.950;11.014;2024-02-14T04:00:46;33.60;;;11.70;;
62863;SDS011;48954;59.950;11.014;2024-02-14T04:03:48;27.50;;;11.20;;
62863;SDS011;48954;59.950;11.014;2024-02-14T04:07:08;37.00;;;12.60;;
62863;SDS011;48954;59.950;11.014;2024-02-14T04:10:06;28.00;;;10.10;;
62863;SDS011;48954;59.950;11.014;2024-02-14T04:12:49;32.00;;;11.50;;
62863;SDS011;48954;59.950;11.014;2024-02-14T04:15:32;34.20;;;12.10;;
62863;SDS011;48954;59.950;11.014;2024-02-14T04:18:54;36.60;;;11.30;;
62863;SDS011;48954;59.950;11.014;2024-02-14T04:21:37;25.20;;;9.40;;
62863;SDS011;48954;59.950;11.014;2024-02-14T04:24:19;31.20;;;11.50;;
62863;SDS011;48954;59.950;11.014;2024-02-14T04:27:09;25.80;;;9.10;;
62863;SDS011;48954;59.950;11.014;2024-02-14T04:30:11;25.70;;;8.90;;
62863;SDS011;48954;59.950;11.014;2024-02-14T04:32:58;20.20;;;7.60;;
62863;SDS011;48954;59.950;11.014;2024-02-14T04:36:01;18.50;;;6.60;;
62863;SDS011;48954;59.950;11.014;2024-02-14T04:38:46;19.80;;;7.70;;
62863;SDS011;48954;59.950;11.014;2024-02-14T04:41:38;17.00;;;6.90;;
62863;SDS011;48954;59.950;11.014;2024-02-14T04:44:40;20.40;;;8.10;;
62863;SDS011;48954;59.950;11.014;2024-02-14T04:52:52;20.10;;;7.60;;
62863;SDS011;48954;59.950;11.014;2024-02-14T04:55:55;20.70;;;7.80;;
62863;SDS011;48954;59.950;11.014;2024-02-14T04:58:36;22.50;;;7.80;;
62863;SDS011;48954;59.950;11.014;2024-02-14T05:01:38;22.90;;;9.20;;
62863;SDS011;48954;59.950;11.014;2024-02-14T05:04:35;21.60;;;7.70;;
62863;SDS011;48954;59.950;11.014;2024-02-14T05:07:36;21.80;;;8.00;;
62863;SDS011;48954;59.950;11.014;2024-02-14T05:10:22;21.30;;;8.50;;
62863;SDS011;48954;59.950;11.014;2024-02-14T05:13:11;23.60;;;8.90;;
62863;SDS011;48954;59.950;11.014;2024-02-14T05:16:03;27.30;;;9.90;;
62863;SDS011;48954;59.950;11.014;2024-02-14T05:19:04;20.70;;;7.40;;
62863;SDS011;48954;59.950;11.014;2024-02-14T05:21:49;16.00;;;6.50;;
62863;SDS011;48954;59.950;11.014;2024-02-14T05:24:31;16.60;;;7.00;;
62863;SDS011;48954;59.950;11.014;2024-02-14T05:27:14;22.90;;;9.30;;
62863;SDS011;48954;59.950;11.014;2024-02-14T05:29:54;29.70;;;10.50;;
62863;SDS011;48954;59.950;11.014;2024-02-14T05:33:03;21.60;;;9.00;;
62863;SDS011;48954;59.950;11.014;2024-02-14T05:35:44;33.00;;;11.80;;
62863;SDS011;48954;59.950;11.014;2024-02-14T05:38:32;23.40;;;9.00;;
62863;SDS011;48954;59.950;11.014;2024-02-14T05:41:33;26.80;;;9.50;;
62863;SDS011;48954;59.950;11.014;2024-02-14T05:44:36;32.40;;;10.80;;
62863;SDS011;48954;59.950;11.014;2024-02-14T05:47:16;23.30;;;8.20;;
62863;SDS011;48954;59.950;11.014;2024-02-14T05:49:57;22.50;;;8.10;;
62863;SDS011;48954;59.950;11.014;2024-02-14T05:52:44;17.70;;;7.80;;
62863;SDS011;48954;59.950;11.014;2024-02-14T05:55:47;29.50;;;11.20;;
62863;SDS011;48954;59.950;11.014;2024-02-14T05:58:28;19.40;;;7.40;;
62863;SDS011;48954;59.950;11.014;2024-02-14T06:01:30;12.60;;;4.80;;
62863;SDS011;48954;59.950;11.014;2024-02-14T06:04:32;13.70;;;5.40;;
62863;SDS011;48954;59.950;11.014;2024-02-14T06:07:13;17.60;;;6.00;;
62863;SDS011;48954;59.950;11.014;2024-02-14T06:13:29;18.00;;;5.90;;
62863;SDS011;48954;59.950;11.014;2024-02-14T06:16:35;22.00;;;7.80;;
62863;SDS011;48954;59.950;11.014;2024-02-14T06:19:36;19.10;;;7.30;;
62863;SDS011;48954;59.950;11.014;2024-02-14T06:22:37;13.40;;;5.00;;
62863;SDS011;48954;59.950;11.014;2024-02-14T06:25:21;17.60;;;6.90;;
62863;SDS011;48954;59.950;11.014;2024-02-14T06:28:45;12.30;;;5.30;;
62863;SDS011;48954;59.950;11.014;2024-02-14T07:16:24;24.80;;;9.20;;
62863;SDS011;48954;59.950;11.014;2024-02-14T07:37:00;15.40;;;7.20;;
62863;SDS011;48954;59.950;11.014;2024-02-14T08:12:11;25.60;;;10.20;;
62863;SDS011;48954;59.950;11.014;2024-02-14T08:23:38;14.70;;;5.90;;
62863;SDS011;48954;59.950;11.014;2024-02-14T08:29:17;14.40;;;5.80;;
62863;SDS011;48954;59.950;11.014;2024-02-14T08:31:58;12.40;;;5.70;;
62863;SDS011;48954;59.950;11.014;2024-02-14T08:35:20;18.90;;;6.50;;
62863;SDS011;48954;59.950;11.014;2024-02-14T08:38:10;24.50;;;8.90;;
62863;SDS011;48954;59.950;11.014;2024-02-14T08:41:14;25.60;;;9.60;;
62863;SDS011;48954;59.950;11.014;2024-02-14T08:44:00;16.60;;;6.70;;
62863;SDS011;48954;59.950;11.014;2024-02-14T08:46:41;24.10;;;9.00;;
62863;SDS011;48954;59.950;11.014;2024-02-14T08:49:42;26.70;;;9.30;;
62863;SDS011;48954;59.950;11.014;2024-02-14T08:52:26;19.40;;;6.90;;
62863;SDS011;48954;59.950;11.014;2024-02-14T08:55:38;25.40;;;8.40;;
62863;SDS011;48954;59.950;11.014;2024-02-14T09:01:16;25.20;;;9.20;;
62863;SDS011;48954;59.950;11.014;2024-02-14T09:04:17;31.00;;;11.40;;
62863;SDS011;48954;59.950;11.014;2024-02-14T09:07:03;23.20;;;9.30;;
62863;SDS011;48954;59.950;11.014;2024-02-14T09:09:49;35.80;;;13.50;;
62863;SDS011;48954;59.950;11.014;2024-02-14T09:13:18;24.40;;;9.10;;
62863;SDS011;48954;59.950;11.014;2024-02-14T09:22:30;27.40;;;8.60;;
62863;SDS011;48954;59.950;11.014;2024-02-14T09:25:52;25.30;;;10.90;;
62863;SDS011;48954;59.950;11.014;2024-02-14T09:28:33;28.90;;;10.70;;
62863;SDS011;48954;59.950;11.014;2024-02-14T09:31:18;31.80;;;11.30;;
62863;SDS011;48954;59.950;11.014;2024-02-14T09:33:59;22.80;;;7.80;;
62863;SDS011;48954;59.950;11.014;2024-02-14T09:36:40;28.10;;;11.90;;
62863;SDS011;48954;59.950;11.014;2024-02-14T09:39:32;23.80;;;9.00;;
62863;SDS011;48954;59.950;11.014;2024-02-14T09:42:13;36.70;;;14.50;;
62863;SDS011;48954;59.950;11.014;2024-02-14T09:45:36;32.90;;;12.50;;
62863;SDS011;48954;59.950;11.014;2024-02-14T09:48:24;35.90;;;12.80;;
62863;SDS011;48954;59.950;11.014;2024-02-14T09:51:09;38.70;;;13.20;;
62863;SDS011;48954;59.950;11.014;2024-02-14T09:53:50;40.70;;;12.60;;
62863;SDS011;48954;59.950;11.014;2024-02-14T09:56:36;32.40;;;10.80;;
62863;SDS011;48954;59.950;11.014;2024-02-14T09:59:16;21.10;;;8.80;;
62863;SDS011;48954;59.950;11.014;2024-02-14T10:01:58;31.60;;;11.70;;
62863;SDS011;48954;59.950;11.014;2024-02-14T10:04:43;28.40;;;10.20;;
62863;SDS011;48954;59.950;11.014;2024-02-14T10:07:25;26.90;;;10.40;;
62863;SDS011;48954;59.950;11.014;2024-02-14T10:10:06;29.70;;;11.10;;
62863;SDS011;48954;59.950;11.014;2024-02-14T10:13:08;34.60;;;12.90;;
62863;SDS011;48954;59.950;11.014;2024-02-14T10:15:59;29.50;;;11.80;;
62863;SDS011;48954;59.950;11.014;2024-02-14T10:21:14;38.30;;;13.70;;
62863;SDS011;48954;59.950;11.014;2024-02-14T10:24:00;33.20;;;13.10;;
62863;SDS011;48954;59.950;11.014;2024-02-14T10:26:50;35.00;;;12.70;;
62863;SDS011;48954;59.950;11.014;2024-02-14T10:29:31;37.80;;;12.20;;
62863;SDS011;48954;59.950;11.014;2024-02-14T10:32:20;32.90;;;10.20;;
62863;SDS011;48954;59.950;11.014;2024-02-14T10:35:06;27.20;;;9.10;;
62863;SDS011;48954;59.950;11.014;2024-02-14T10:37:51;31.40;;;10.50;;
62863;SDS011;48954;59.950;11.014;2024-02-14T10:40:38;20.40;;;7.20;;
62863;SDS011;48954;59.950;11.014;2024-02-14T10:46:20;14.70;;;6.60;;
62863;SDS011;48954;59.950;11.014;2024-02-14T10:49:05;12.10;;;4.40;;
62863;SDS011;48954;59.950;11.014;2024-02-14T10:51:49;9.50;;;3.70;;
62863;SDS011;48954;59.950;11.014;2024-02-14T10:54:55;10.40;;;4.40;;
62863;SDS011;48954;59.950;11.014;2024-02-14T10:57:40;12.70;;;5.10;;
62863;SDS011;48954;59.950;11.014;2024-02-14T11:00:41;11.70;;;4.20;;
62863;SDS011;48954;59.950;11.014;2024-02-14T11:03:46;7.50;;;3.50;;
62863;SDS011;48954;59.950;11.014;2024-02-14T11:06:27;9.60;;;4.40;;
62863;SDS011;48954;59.950;11.014;2024-02-14T11:09:11;10.20;;;4.00;;
62863;SDS011;48954;59.950;11.014;2024-02-14T11:12:00;11.40;;;5.30;;
62863;SDS011;48954;59.950;11.014;2024-02-14T11:14:32;10.30;;;5.00;;
62863;SDS011;48954;59.950;11.014;2024-02-14T11:17:15;10.70;;;4.40;;
62863;SDS011;48954;59.950;11.014;2024-02-14T11:20:18;11.00;;;4.90;;
62863;SDS011;48954;59.950;11.014;2024-02-14T11:23:07;11.00;;;4.70;;
62863;SDS011;48954;59.950;11.014;2024-02-14T11:26:14;12.10;;;4.80;;
62863;SDS011;48954;59.950;11.014;2024-02-14T11:29:01;8.60;;;3.50;;
62863;SDS011;48954;59.950;11.014;2024-02-14T11:38:42;10.90;;;4.70;;
62863;SDS011;48954;59.950;11.014;2024-02-14T11:41:41;11.60;;;4.80;;
62863;SDS011;48954;59.950;11.014;2024-02-14T11:44:23;9.20;;;4.50;;
62863;SDS011;48954;59.950;11.014;2024-02-14T11:47:09;9.80;;;4.20;;
62863;SDS011;48954;59.950;11.014;2024-02-14T11:49:59;10.90;;;4.50;;
62863;SDS011;48954;59.950;11.014;2024-02-14T11:53:02;11.70;;;4.40;;
62863;SDS011;48954;59.950;11.014;2024-02-14T11:56:17;7.70;;;3.50;;
62863;SDS011;48954;59.950;11.014;2024-02-14T12:02:32;9.30;;;3.40;;
62863;SDS011;48954;59.950;11.014;2024-02-14T12:05:17;8.20;;;3.50;;
62863;SDS011;48954;59.950;11.014;2024-02-14T12:08:39;6.80;;;2.40;;
62863;SDS011;48954;59.950;11.014;2024-02-14T12:33:44;9.60;;;3.50;;
62863;SDS011;48954;59.950;11.014;2024-02-14T12:36:51;6.90;;;2.40;;
62863;SDS011;48954;59.950;11.014;2024-02-14T12:40:05;8.00;;;3.40;;
62863;SDS011;48954;59.950;11.014;2024-02-14T12:43:33;7.70;;;3.30;;
62863;SDS011;48954;59.950;11.014;2024-02-14T12:58:19;6.80;;;3.00;;
62863;SDS011;48954;59.950;11.014;2024-02-14T13:31:03;8.70;;;4.10;;
62863;SDS011;48954;59.950;11.014;2024-02-14T18:19:02;12.80;;;5.60;;
62863;SDS011;48954;59.950;11.014;2024-02-14T21:15:31;15.50;;;6.40;;
62863;SDS011;48954;59.950;11.014;2024-02-14T21:18:54;14.90;;;6.10;;
62863;SDS011;48954;59.950;11.014;2024-02-14T21:21:42;16.00;;;6.60;;
62863;SDS011;48954;59.950;11.014;2024-02-14T21:25:03;16.20;;;5.90;;
62863;SDS011;48954;59.950;11.014;2024-02-14T21:31:32;24.60;;;8.10;;
62863;SDS011;48954;59.950;11.014;2024-02-14T21:34:56;22.60;;;7.80;;
62863;SDS011;48954;59.950;11.014;2024-02-14T21:37:58;14.70;;;6.50;;
62863;SDS011;48954;59.950;11.014;2024-02-14T21:49:44;16.00;;;6.40;;
62863;SDS011;48954;59.950;11.014;2024-02-14T21:58:55;20.00;;;5.60;;
62863;SDS011;48954;59.950;11.014;2024-02-14T22:05:27;18.60;;;6.10;;
62863;SDS011;48954;59.950;11.014;2024-02-14T23:18:35;18.40;;;5.40;;
62863;SDS011;48954;59.950;11.014;2024-02-14T23:22:06;11.50;;;4.20;;
62863;SDS011;48954;59.950;11.014;2024-02-14T23:25:54;14.70;;;4.50;;
62863;SDS011;48954;59.950;11.014;2024-02-14T23:29:11;11.90;;;4.10;;
62863;SDS011;48954;59.950;11.014;2024-02-14T23:32:17;10.10;;;4.00;;
62863;SDS011;48954;59.950;11.014;2024-02-14T23:35:24;12.80;;;5.20;;
62863;SDS011;48954;59.950;11.014;2024-02-14T23:38:29;12.30;;;4.00;;
62863;SDS011;48954;59.950;11.014;2024-02-14T23:41:54;7.70;;;3.20;;
62863;SDS011;48954;59.950;11.014;2024-02-14T23:45:21;10.00;;;4.00;;
62863;SDS011;48954;59.950;11.014;2024-02-14T23:48:32;12.30;;;4.60;;
